Terminal Aerodrome Forecast
Issued by NWS Quad Cities IA IL

Home | Current Version | Previous Version | Text Only | Print | Product List | Glossary On
Versions: 1 2 3 4 5 6 7 8 9 10 11 12 13 14 15 16
000
FTUS43 KDVN 181136
TAFDBQ
TAF
KDBQ 181136Z 1812/1912 32006KT P6SM SKC
     FM182000 01006KT P6SM SCT035
     FM190900 VRB05KT 3SM BR SCT010=

USA.gov is the U.S. government's official web portal to all federal, state and local government web resources and services.